Time;durP1;ratioP1;P1;durP2;ratioP2;P2;SDS_P1;SDS_P2;PMS_P1;PMS_P2;Temp;Humidity;BMP_temperature;BMP_pressure;BME280_temperature;BME280_humidity;BME280_pressure;Samples;Min_cycle;Max_cycle;Signal;HPM_P1;HPM_P2
2023/12/08 00:01:43;;;;;;;14.60;8.40;;;-1.50;1.00;;;;;;5195606;28;20033;-35
2023/12/08 00:04:18;;;;;;;17.60;8.15;;;-1.50;1.00;;;;;;5197142;28;20025;-35
2023/12/08 00:06:52;;;;;;;13.27;7.38;;;-1.50;1.00;;;;;;5196508;28;20033;-35
2023/12/08 00:09:23;;;;;;;13.23;7.20;;;-1.40;1.00;;;;;;5204182;28;20368;-35
2023/12/08 00:11:55;;;;;;;14.73;7.22;;;-1.40;1.00;;;;;;5194034;28;20034;-35
2023/12/08 00:14:31;;;;;;;13.68;7.22;;;-1.40;1.00;;;;;;5195795;28;20376;-35
2023/12/08 00:17:07;;;;;;;23.30;9.50;;;-1.40;1.00;;;;;;5182977;28;20246;-35
2023/12/08 00:19:40;;;;;;;15.55;7.57;;;-1.40;1.00;;;;;;5190886;28;20041;-35
2023/12/08 00:22:11;;;;;;;23.52;11.55;;;-1.40;1.00;;;;;;5194959;28;20037;-35
2023/12/08 00:24:45;;;;;;;14.85;7.85;;;-1.40;1.00;;;;;;5193809;28;20030;-35
2023/12/08 00:27:19;;;;;;;11.98;6.80;;;-1.50;1.00;;;;;;5203857;28;20037;-35
2023/12/08 00:29:52;;;;;;;16.10;7.72;;;-1.70;1.00;;;;;;5196929;28;20059;-35
2023/12/08 00:32:24;;;;;;;16.73;8.32;;;-1.80;1.00;;;;;;5197014;28;20045;-35
2023/12/08 00:34:55;;;;;;;13.52;7.30;;;-1.90;1.00;;;;;;5200875;28;20325;-35
2023/12/08 00:37:26;;;;;;;14.35;8.43;;;-1.90;1.00;;;;;;5206330;28;20071;-35
2023/12/08 00:40:00;;;;;;;18.55;8.52;;;-2.00;1.00;;;;;;5198750;28;20029;-35
2023/12/08 00:42:34;;;;;;;16.02;7.65;;;-2.00;1.00;;;;;;5201866;28;20029;-35
2023/12/08 00:45:08;;;;;;;;;;;-2.00;1.00;;;;;;5198581;28;20199;-35
2023/12/08 00:47:41;;;;;;;18.10;9.40;;;-2.10;1.00;;;;;;5198585;28;19913;-35
2023/12/08 00:50:18;;;;;;;23.83;9.27;;;-2.40;1.00;;;;;;5201761;28;20269;-35
2023/12/08 00:52:49;;;;;;;19.07;9.23;;;-2.40;1.00;;;;;;5200178;28;20033;-35
2023/12/08 00:55:23;;;;;;;21.60;9.53;;;-2.40;1.00;;;;;;5201760;28;20025;-35
2023/12/08 00:57:56;;;;;;;16.77;8.77;;;-2.50;1.00;;;;;;5198270;28;20317;-35
2023/12/08 01:00:27;;;;;;;20.60;9.73;;;-2.50;1.00;;;;;;5177926;28;20112;-35
2023/12/08 01:02:58;;;;;;;19.35;9.00;;;-2.40;1.00;;;;;;5200236;28;20049;-35
2023/12/08 01:05:30;;;;;;;15.88;8.55;;;-2.40;1.00;;;;;;5198839;28;20221;-35
2023/12/08 01:08:04;;;;;;;18.00;9.23;;;-2.30;1.00;;;;;;5199283;28;20045;-35
2023/12/08 01:10:35;;;;;;;18.13;8.52;;;-2.40;1.00;;;;;;5201503;28;20030;-35
2023/12/08 01:13:09;;;;;;;16.65;8.98;;;-2.30;1.00;;;;;;5198687;28;20371;-35
2023/12/08 01:15:43;;;;;;;13.95;8.90;;;-2.30;1.00;;;;;;5194305;28;20040;-35
2023/12/08 01:18:17;;;;;;;16.52;7.93;;;-2.30;1.00;;;;;;5215144;28;20517;-35
2023/12/08 01:20:48;;;;;;;18.95;9.45;;;-2.40;1.00;;;;;;5195844;28;20037;-35
2023/12/08 01:23:22;;;;;;;20.85;9.98;;;-2.40;1.00;;;;;;5200929;28;20353;-35
2023/12/08 01:25:53;;;;;;;20.40;10.10;;;-2.40;1.00;;;;;;5201218;28;20029;-35
2023/12/08 01:28:27;;;;;;;16.40;8.65;;;-2.30;1.00;;;;;;5184701;28;20387;-35
2023/12/08 01:30:58;;;;;;;20.58;8.63;;;-2.30;1.00;;;;;;5195824;28;20033;-35
2023/12/08 01:33:34;;;;;;;17.17;9.02;;;-2.40;1.00;;;;;;5198450;28;20051;-35
2023/12/08 01:36:05;;;;;;;17.55;9.13;;;-2.40;1.00;;;;;;5199729;28;20033;-35
2023/12/08 01:38:37;;;;;;;13.30;8.05;;;-2.40;1.00;;;;;;5182216;28;20327;-35
2023/12/08 01:41:08;;;;;;;14.50;7.78;;;-2.40;1.00;;;;;;5200574;28;20052;-35
2023/12/08 01:43:39;;;;;;;14.85;8.30;;;-2.60;1.00;;;;;;5201002;28;20493;-35
2023/12/08 01:46:15;;;;;;;19.67;7.63;;;-2.60;1.00;;;;;;5210134;28;20037;-35
2023/12/08 01:48:53;;;;;;;15.10;8.20;;;-2.70;1.00;;;;;;5200290;28;20057;-35
2023/12/08 01:51:24;;;;;;;13.25;9.25;;;-2.60;1.00;;;;;;5213575;28;20392;-35
2023/12/08 01:54:01;;;;;;;14.43;7.90;;;-2.60;1.00;;;;;;5211073;28;20025;-35
2023/12/08 01:56:35;;;;;;;15.33;7.10;;;-2.70;1.00;;;;;;5200349;28;20036;-35
2023/12/08 01:59:08;;;;;;;;;;;-2.70;1.00;;;;;;5200716;28;20029;-35
2023/12/08 02:01:46;;;;;;;18.75;8.77;;;-2.80;1.00;;;;;;5197553;28;19916;-35
2023/12/08 02:04:20;;;;;;;17.05;8.93;;;-2.70;1.00;;;;;;5200405;28;20211;-35
2023/12/08 02:06:52;;;;;;;20.80;10.07;;;-2.80;1.00;;;;;;5215712;28;20070;-35
2023/12/08 02:09:23;;;;;;;19.80;8.90;;;-2.80;1.00;;;;;;5200841;28;20037;-35
2023/12/08 02:11:58;;;;;;;15.88;8.38;;;-2.70;1.00;;;;;;5200291;28;20372;-35
2023/12/08 02:14:32;;;;;;;14.00;7.18;;;-2.60;1.00;;;;;;5200712;28;20025;-35
2023/12/08 02:17:11;;;;;;;18.60;8.27;;;-2.60;1.00;;;;;;5203395;28;20253;-35
2023/12/08 02:19:46;;;;;;;18.13;7.90;;;-2.60;1.00;;;;;;5203475;28;20037;-35
2023/12/08 02:22:18;;;;;;;17.07;8.53;;;-2.60;1.00;;;;;;5202407;28;20037;-35
2023/12/08 02:24:50;;;;;;;13.80;7.87;;;-2.60;1.00;;;;;;5214960;28;20033;-35
2023/12/08 02:27:21;;;;;;;18.23;9.02;;;-2.70;1.00;;;;;;5199391;28;20033;-36
2023/12/08 02:29:55;;;;;;;18.55;7.78;;;-2.70;1.00;;;;;;5200248;28;20241;-35
2023/12/08 02:32:51;;;;;;;17.53;8.60;;;-2.60;1.00;;;;;;5194188;28;20059;-35
2023/12/08 02:35:24;;;;;;;16.10;8.18;;;-2.60;1.00;;;;;;5179452;28;20041;-35
2023/12/08 02:38:10;;;;;;;15.80;7.45;;;-2.60;1.00;;;;;;5194688;28;20049;-35
2023/12/08 02:40:44;;;;;;;12.77;7.77;;;-2.70;1.00;;;;;;5181931;28;20033;-35
2023/12/08 02:43:15;;;;;;;21.10;8.98;;;-2.90;1.00;;;;;;5197477;28;20025;-35
2023/12/08 02:45:50;;;;;;;19.93;9.90;;;-3.00;1.00;;;;;;5195766;28;20020;-35
2023/12/08 02:48:21;;;;;;;14.60;7.10;;;-2.90;1.00;;;;;;5197280;28;20055;-35
2023/12/08 02:50:52;;;;;;;15.73;9.50;;;-3.00;1.00;;;;;;5196777;28;20025;-35
2023/12/08 02:53:26;;;;;;;12.77;8.07;;;-3.00;1.00;;;;;;5194908;28;20036;-35
2023/12/08 02:56:00;;;;;;;22.85;10.10;;;-3.10;1.00;;;;;;5197151;28;20030;-37
2023/12/08 02:58:34;;;;;;;16.17;7.70;;;-3.00;1.00;;;;;;5195733;28;20386;-34
2023/12/08 03:01:11;;;;;;;19.53;9.40;;;-3.20;1.00;;;;;;5194639;28;20033;-35
2023/12/08 03:03:45;;;;;;;13.97;7.47;;;-3.20;1.00;;;;;;5198259;28;20227;-34
2023/12/08 03:06:16;;;;;;;16.77;8.20;;;-3.30;1.00;;;;;;5197787;28;20037;-35
2023/12/08 03:08:48;;;;;;;17.53;9.40;;;-3.40;1.00;;;;;;5197907;28;20038;-35
2023/12/08 03:11:19;;;;;;;17.10;8.63;;;-3.50;1.00;;;;;;5184743;28;20163;-34
2023/12/08 03:13:52;;;;;;;21.77;10.47;;;-3.50;1.00;;;;;;5198249;28;20291;-35
2023/12/08 03:16:24;;;;;;;16.05;9.70;;;-3.40;1.00;;;;;;5210361;28;20044;-37
2023/12/08 03:18:55;;;;;;;14.27;8.50;;;-3.40;1.00;;;;;;5196029;28;20113;-35
2023/12/08 03:21:27;;;;;;;18.23;9.23;;;-3.40;1.00;;;;;;5197909;28;20226;-35
2023/12/08 03:24:00;;;;;;;19.13;9.47;;;-3.40;1.00;;;;;;5192444;28;20169;-35
2023/12/08 03:26:33;;;;;;;19.02;9.32;;;-3.30;1.00;;;;;;5184672;28;20412;-35
2023/12/08 03:29:07;;;;;;;18.83;9.75;;;-3.40;1.00;;;;;;5198918;28;20033;-35
2023/12/08 03:31:38;;;;;;;24.85;10.63;;;-3.40;1.00;;;;;;5215138;28;20055;-35
2023/12/08 03:34:10;;;;;;;14.53;8.37;;;-3.40;1.00;;;;;;5199169;28;20037;-34
2023/12/08 03:36:41;;;;;;;17.67;9.00;;;-3.50;1.00;;;;;;5213476;28;20017;-35
2023/12/08 03:39:12;;;;;;;18.47;10.10;;;-3.50;1.00;;;;;;5196633;28;20041;-35
2023/12/08 03:41:46;;;;;;;23.60;10.80;;;-3.50;1.00;;;;;;5196587;28;20040;-35
2023/12/08 03:44:17;;;;;;;;;;;-3.50;1.00;;;;;;5213170;28;20037;-34
2023/12/08 03:46:53;;;;;;;17.93;9.53;;;-3.60;1.00;;;;;;5193672;28;19913;-35
2023/12/08 03:49:27;;;;;;;18.70;8.33;;;-3.70;1.00;;;;;;5196481;28;20033;-34
2023/12/08 03:51:59;;;;;;;21.08;9.20;;;-3.60;1.00;;;;;;5198160;28;20033;-35
2023/12/08 03:54:32;;;;;;;16.93;9.50;;;-3.60;1.00;;;;;;5195354;28;20199;-35
2023/12/08 03:57:04;;;;;;;18.65;9.95;;;-3.60;1.00;;;;;;5198226;28;20341;-37
2023/12/08 03:59:37;;;;;;;20.40;9.83;;;-3.50;1.00;;;;;;5197631;28;20044;-36
2023/12/08 04:02:08;;;;;;;19.17;9.45;;;-3.50;1.00;;;;;;5190420;28;20136;-36
2023/12/08 04:04:41;;;;;;;21.70;10.60;;;-3.50;1.00;;;;;;5197038;28;20220;-36
2023/12/08 04:07:15;;;;;;;16.70;9.60;;;-3.50;1.00;;;;;;5198373;28;20030;-34
2023/12/08 04:09:47;;;;;;;19.40;9.73;;;-3.40;1.00;;;;;;5179351;28;20325;-35
2023/12/08 04:12:21;;;;;;;20.30;10.50;;;-3.40;1.00;;;;;;5189311;28;20238;-35
2023/12/08 04:14:52;;;;;;;29.53;13.10;;;-3.50;1.00;;;;;;5196642;28;20034;-36
2023/12/08 04:17:26;;;;;;;27.03;12.27;;;-3.50;1.00;;;;;;5195320;28;20033;-36
2023/12/08 04:19:59;;;;;;;16.73;9.07;;;-3.50;1.00;;;;;;5196577;28;20230;-36
2023/12/08 04:22:31;;;;;;;19.02;9.40;;;-3.50;1.00;;;;;;5186888;28;20323;-36
2023/12/08 04:25:02;;;;;;;17.47;9.77;;;-3.60;1.00;;;;;;5197481;28;20032;-36
2023/12/08 04:27:34;;;;;;;13.73;8.17;;;-3.90;1.00;;;;;;5196851;28;20237;-35
2023/12/08 04:30:10;;;;;;;28.47;11.00;;;-4.00;1.00;;;;;;5193870;28;20363;-35
2023/12/08 04:32:44;;;;;;;15.90;8.63;;;-3.90;1.00;;;;;;5182147;28;20514;-34
2023/12/08 04:35:18;;;;;;;16.83;9.23;;;-3.80;1.00;;;;;;5189585;28;20041;-37
2023/12/08 04:37:50;;;;;;;;;;;-3.90;1.00;;;;;;5196109;28;20337;-35
2023/12/08 04:40:23;;;;;;;20.03;10.23;;;-3.90;1.00;;;;;;5197178;28;20399;-34
2023/12/08 04:42:55;;;;;;;15.07;8.57;;;-4.00;1.00;;;;;;5212013;28;20052;-36
2023/12/08 04:45:26;;;;;;;23.50;10.37;;;-4.10;1.00;;;;;;5195043;28;20215;-34
2023/12/08 04:47:59;;;;;;;19.17;10.03;;;-4.20;1.00;;;;;;5178540;28;20030;-34
2023/12/08 04:50:30;;;;;;;19.05;9.98;;;-4.10;1.00;;;;;;5195518;28;20029;-35
2023/12/08 04:53:02;;;;;;;20.23;9.53;;;-4.10;1.00;;;;;;5196106;28;20245;-34
2023/12/08 04:55:38;;;;;;;17.80;10.30;;;-4.10;1.00;;;;;;5197564;28;20103;-35
2023/12/08 04:58:09;;;;;;;22.87;10.67;;;-4.10;1.00;;;;;;5196648;28;20383;-34
2023/12/08 05:00:40;;;;;;;26.27;10.93;;;-4.10;1.00;;;;;;5192794;28;20047;-35
2023/12/08 05:03:15;;;;;;;20.63;10.50;;;-4.00;1.00;;;;;;5192045;28;20025;-35
2023/12/08 05:05:49;;;;;;;21.33;10.60;;;-3.90;1.00;;;;;;5162185;28;20029;-34
2023/12/08 05:08:22;;;;;;;;;;;-3.80;1.00;;;;;;5180053;28;20032;-34
2023/12/08 05:10:54;;;;;;;23.57;10.80;;;-3.70;1.00;;;;;;5195457;28;19920;-34
2023/12/08 05:13:28;;;;;;;21.60;9.37;;;-3.70;1.00;;;;;;5196460;28;20029;-34
2023/12/08 05:15:59;;;;;;;23.43;9.53;;;-3.80;1.00;;;;;;5194624;28;20041;-34
2023/12/08 05:18:31;;;;;;;18.00;9.70;;;-4.10;1.00;;;;;;5200378;28;20041;-34
2023/12/08 05:21:05;;;;;;;23.97;11.03;;;-4.30;1.00;;;;;;5196752;28;20025;-34
2023/12/08 05:23:41;;;;;;;20.03;11.67;;;-4.30;1.00;;;;;;5204899;28;20040;-34
2023/12/08 05:26:13;;;;;;;22.53;10.43;;;-4.20;1.00;;;;;;5172648;28;20369;-34
2023/12/08 05:28:44;;;;;;;20.17;11.00;;;-4.20;1.00;;;;;;5198623;28;20064;-36
2023/12/08 05:31:20;;;;;;;21.80;11.67;;;-4.20;1.00;;;;;;5197102;28;20044;-34
2023/12/08 05:33:52;;;;;;;25.97;11.93;;;-4.20;1.00;;;;;;5200072;28;20045;-34
2023/12/08 05:36:25;;;;;;;24.03;12.70;;;-4.10;1.00;;;;;;5198717;28;20040;-35
2023/12/08 05:38:59;;;;;;;22.08;11.55;;;-4.00;1.00;;;;;;5187270;28;20026;-36
2023/12/08 05:41:30;;;;;;;;;;;-3.90;1.00;;;;;;5189433;28;20250;-34
2023/12/08 05:44:02;;;;;;;23.47;11.70;;;-4.10;1.00;;;;;;5199911;28;19935;-37
2023/12/08 05:46:38;;;;;;;31.33;12.27;;;-4.10;1.00;;;;;;5196182;28;20033;-37
2023/12/08 05:49:10;;;;;;;21.47;13.00;;;-4.00;1.00;;;;;;5199891;28;20026;-36
2023/12/08 05:51:42;;;;;;;26.00;12.47;;;-4.00;1.00;;;;;;5201142;28;20052;-36
2023/12/08 05:54:13;;;;;;;23.87;12.27;;;-4.00;1.00;;;;;;5220758;28;20028;-34
2023/12/08 05:56:44;;;;;;;20.00;11.57;;;-4.00;1.00;;;;;;5177795;28;20037;-34
2023/12/08 05:59:15;;;;;;;22.27;13.33;;;-3.70;15.60;;;;;;5197367;28;20033;-34
2023/12/08 06:01:54;;;;;;;26.40;14.17;;;-3.60;21.20;;;;;;5192693;28;20040;-34
2023/12/08 06:04:28;;;;;;;28.10;15.10;;;-3.50;22.00;;;;;;5200059;28;20325;-37
2023/12/08 06:06:59;;;;;;;21.42;10.75;;;-3.40;19.50;;;;;;5199745;28;20302;-36
2023/12/08 06:09:30;;;;;;;25.37;14.00;;;-3.40;22.70;;;;;;5198839;28;20424;-36
2023/12/08 06:12:01;;;;;;;28.80;14.40;;;-3.40;22.70;;;;;;5197338;28;20352;-36
2023/12/08 06:14:33;;;;;;;26.87;13.97;;;-3.50;18.00;;;;;;5200603;28;20341;-36
2023/12/08 06:17:04;;;;;;;27.60;14.57;;;-3.50;25.20;;;;;;5195765;28;20095;-36
2023/12/08 06:19:35;;;;;;;31.10;15.67;;;-3.50;32.60;;;;;;5210258;28;20033;-36
2023/12/08 06:22:07;;;;;;;32.03;15.20;;;-3.40;45.10;;;;;;5203107;28;20021;-36
2023/12/08 06:24:38;;;;;;;23.70;13.60;;;-3.30;49.20;;;;;;5184535;28;20033;-36
2023/12/08 06:27:12;;;;;;;31.73;14.63;;;-3.40;43.10;;;;;;5198332;28;20029;-36
2023/12/08 06:29:43;;;;;;;26.53;13.03;;;-3.40;40.90;;;;;;5198057;28;20206;-36
2023/12/08 06:32:15;;;;;;;25.20;12.63;;;-3.50;40.90;;;;;;5206718;28;20223;-36
2023/12/08 06:34:46;;;;;;;28.23;13.07;;;-3.50;36.60;;;;;;5210545;28;20300;-36
2023/12/08 06:37:20;;;;;;;21.43;12.63;;;-3.50;40.30;;;;;;5198052;28;20032;-36
2023/12/08 06:39:53;;;;;;;30.85;13.48;;;-3.40;53.70;;;;;;5181056;28;20306;-36
2023/12/08 06:42:27;;;;;;;25.27;13.55;;;-3.30;56.20;;;;;;5196149;28;20029;-36
2023/12/08 06:45:02;;;;;;;21.67;11.20;;;-3.30;51.60;;;;;;5197955;28;20044;-36
2023/12/08 06:47:36;;;;;;;23.80;12.17;;;-3.50;38.80;;;;;;5193136;28;20026;-36
2023/12/08 06:50:08;;;;;;;;;;;-3.40;47.60;;;;;;5198101;28;20184;-36
2023/12/08 06:52:39;;;;;;;81.73;39.13;;;-3.50;39.00;;;;;;5199482;28;19913;-36
2023/12/08 06:55:12;;;;;;;33.30;16.73;;;-3.40;43.70;;;;;;5197478;28;20060;-36
2023/12/08 06:57:46;;;;;;;38.70;19.48;;;-3.30;56.70;;;;;;5197637;28;20037;-36
2023/12/08 07:00:22;;;;;;;;;;;-3.20;55.40;;;;;;5196356;28;20415;-36
2023/12/08 07:02:53;;;;;;;61.93;30.80;;;-3.10;68.60;;;;;;5198776;28;20106;-37
2023/12/08 07:05:24;;;;;;;30.00;16.10;;;-3.00;80.10;;;;;;5196903;28;20318;-36
2023/12/08 07:07:57;;;;;;;29.80;14.10;;;-2.90;73.80;;;;;;5197910;28;20283;-36
2023/12/08 07:10:28;;;;;;;32.70;14.87;;;-2.90;63.60;;;;;;5196681;28;20214;-36
2023/12/08 07:13:02;;;;;;;24.60;12.43;;;-2.90;50.00;;;;;;5195296;28;20219;-36
2023/12/08 07:15:33;;;;;;;29.20;12.63;;;-2.70;50.20;;;;;;5195685;28;20237;-36
2023/12/08 07:18:06;;;;;;;28.83;13.50;;;-2.60;42.00;;;;;;5198465;28;20260;-36
2023/12/08 07:20:37;;;;;;;126.40;30.57;;;-2.50;29.80;;;;;;5196012;28;20037;-36
2023/12/08 07:23:14;;;;;;;34.00;14.80;;;-2.50;10.40;;;;;;5197580;28;20336;-36
2023/12/08 07:25:45;;;;;;;22.80;11.70;;;-2.40;2.00;;;;;;5195587;28;20033;-36
2023/12/08 07:28:16;;;;;;;22.30;11.80;;;-2.20;1.00;;;;;;5196843;28;20419;-36
2023/12/08 07:30:48;;;;;;;19.50;11.50;;;-2.10;1.00;;;;;;5175099;28;20376;-36
2023/12/08 07:33:19;;;;;;;21.00;10.85;;;-1.90;1.00;;;;;;5195372;28;20294;-36
2023/12/08 07:35:52;;;;;;;20.13;11.23;;;-1.70;1.00;;;;;;5193403;28;20044;-36
2023/12/08 07:38:29;;;;;;;20.42;10.02;;;-1.60;1.00;;;;;;5196542;28;20298;-36
2023/12/08 07:41:00;;;;;;;22.75;11.23;;;-1.50;1.00;;;;;;5195632;28;20030;-36
2023/12/08 07:43:31;;;;;;;25.52;11.07;;;-1.40;1.00;;;;;;5195494;28;20230;-36
2023/12/08 07:46:03;;;;;;;24.30;11.50;;;-1.20;1.00;;;;;;5192478;28;20033;-36
2023/12/08 07:48:34;;;;;;;20.25;11.25;;;-1.20;1.00;;;;;;5198232;28;20028;-36
2023/12/08 07:51:09;;;;;;;20.27;10.82;;;-1.00;1.00;;;;;;5198634;28;20369;-36
2023/12/08 07:53:40;;;;;;;;;;;-0.80;1.00;;;;;;5200246;28;20031;-36
2023/12/08 07:56:13;;;;;;;19.27;10.10;;;-0.60;1.00;;;;;;5197561;28;19913;-36
2023/12/08 07:58:48;;;;;;;20.65;11.43;;;-0.70;1.00;;;;;;5190269;28;20045;-36
2023/12/08 08:01:19;;;;;;;24.55;12.68;;;-0.50;1.00;;;;;;5208159;28;20033;-36
2023/12/08 08:03:53;;;;;;;19.67;10.35;;;-0.30;1.00;;;;;;5196260;28;20369;-36
2023/12/08 08:06:24;;;;;;;18.90;10.65;;;-0.20;1.00;;;;;;5193116;28;20033;-36
2023/12/08 08:08:56;;;;;;;16.98;9.75;;;-0.30;99.90;;;;;;5194702;28;20556;-36
2023/12/08 08:11:30;;;;;;;18.50;8.93;;;-0.20;99.90;;;;;;5194597;28;20041;-36
2023/12/08 08:14:01;;;;;;;18.63;9.15;;;0.00;1.00;;;;;;5181495;28;20345;-36
2023/12/08 08:16:32;;;;;;;14.25;9.20;;;0.10;99.90;;;;;;5187299;28;20048;-37
2023/12/08 08:19:04;;;;;;;16.40;9.48;;;0.10;99.90;;;;;;5195584;28;20041;-36
2023/12/08 08:21:35;;;;;;;18.20;9.57;;;0.30;99.90;;;;;;5180302;28;20044;-36
2023/12/08 08:24:09;;;;;;;15.65;8.07;;;0.30;1.00;;;;;;5193475;28;20245;-36
2023/12/08 08:26:49;;;;;;;18.30;8.40;;;0.40;99.90;;;;;;5197128;28;20036;-36
2023/12/08 08:29:23;;;;;;;16.42;8.88;;;0.60;99.90;;;;;;5192344;28;20026;-36
2023/12/08 08:31:54;;;;;;;14.73;8.02;;;0.80;99.90;;;;;;5206318;28;20042;-36
2023/12/08 08:34:25;;;;;;;16.33;8.85;;;1.00;99.90;;;;;;5175271;28;20350;-36
2023/12/08 08:36:57;;;;;;;14.30;8.65;;;1.20;50.90;;;;;;5193911;28;20338;-34
2023/12/08 08:39:28;;;;;;;17.50;8.05;;;1.30;1.00;;;;;;5195419;28;20267;-34
2023/12/08 08:42:02;;;;;;;14.77;8.20;;;1.50;99.90;;;;;;5197093;28;20472;-34
2023/12/08 08:44:33;;;;;;;14.55;6.78;;;1.60;99.90;;;;;;5197234;28;20025;-37
2023/12/08 08:47:04;;;;;;;15.48;8.02;;;1.80;99.90;;;;;;5197590;28;20205;-37
2023/12/08 08:49:38;;;;;;;14.20;8.25;;;2.00;99.90;;;;;;5196464;28;20295;-36
2023/12/08 08:52:15;;;;;;;14.73;7.35;;;2.20;24.10;;;;;;5200687;28;20353;-36
2023/12/08 08:54:49;;;;;;;14.05;7.47;;;2.40;1.00;;;;;;5211015;28;20038;-34
2023/12/08 08:57:20;;;;;;;14.98;8.07;;;2.50;1.00;;;;;;5198540;28;20203;-36
2023/12/08 08:59:51;;;;;;;14.10;7.95;;;2.40;1.00;;;;;;5200326;28;20136;-34
2023/12/08 09:02:22;;;;;;;10.45;7.10;;;2.70;1.00;;;;;;5206960;28;20040;-34
2023/12/08 09:04:54;;;;;;;11.55;7.10;;;2.90;1.00;;;;;;5209257;28;20048;-34
2023/12/08 09:07:25;;;;;;;13.00;8.35;;;2.90;1.00;;;;;;5206304;28;20234;-36
2023/12/08 09:09:57;;;;;;;14.27;7.65;;;2.60;1.00;;;;;;5194687;28;20345;-36
2023/12/08 09:12:29;;;;;;;11.70;8.05;;;2.60;1.00;;;;;;5190791;28;20469;-33
2023/12/08 09:15:03;;;;;;;10.95;6.88;;;2.50;1.00;;;;;;5220801;28;20221;-34
2023/12/08 09:17:34;;;;;;;11.23;6.63;;;2.40;1.00;;;;;;5206655;28;20213;-36
2023/12/08 09:20:08;;;;;;;11.02;7.53;;;2.10;1.00;;;;;;5179981;28;20045;-35
2023/12/08 09:22:41;;;;;;;12.07;7.50;;;2.00;1.00;;;;;;5173143;28;20029;-37
2023/12/08 09:25:12;;;;;;;13.85;7.75;;;1.90;1.00;;;;;;5192399;28;20030;-34
2023/12/08 09:27:44;;;;;;;12.57;7.93;;;1.70;1.00;;;;;;5213351;28;20482;-35
2023/12/08 09:30:15;;;;;;;11.07;6.90;;;1.90;1.00;;;;;;5200735;28;20044;-35
2023/12/08 09:32:50;;;;;;;11.77;7.45;;;2.10;1.00;;;;;;5207936;28;20037;-34
2023/12/08 09:35:23;;;;;;;12.52;7.72;;;2.10;1.00;;;;;;5210436;28;20256;-34
2023/12/08 09:37:58;;;;;;;10.13;6.82;;;2.00;1.00;;;;;;5215131;28;20231;-37
2023/12/08 09:40:32;;;;;;;12.13;7.97;;;2.00;1.00;;;;;;5209374;28;20044;-34
2023/12/08 09:43:26;;;;;;;13.00;7.70;;;2.30;1.00;;;;;;5201364;28;20033;-34
2023/12/08 09:46:00;;;;;;;10.48;7.00;;;2.50;1.00;;;;;;5172076;28;20272;-35
2023/12/08 09:48:37;;;;;;;10.00;6.90;;;2.40;1.00;;;;;;5186183;28;20021;-34
2023/12/08 09:51:09;;;;;;;11.05;6.22;;;2.20;1.00;;;;;;5194041;28;20044;-34
2023/12/08 09:53:41;;;;;;;12.32;7.75;;;2.60;1.00;;;;;;5211908;28;20182;-35
2023/12/08 09:56:16;;;;;;;12.43;7.95;;;2.50;1.00;;;;;;5208802;28;20284;-35
2023/12/08 09:58:48;;;;;;;14.13;7.47;;;3.20;1.00;;;;;;5212639;28;20013;-35
2023/12/08 10:01:20;;;;;;;13.10;8.88;;;3.10;99.90;;;;;;5203875;28;20041;-35
2023/12/08 10:03:51;;;;;;;9.45;5.90;;;2.70;99.90;;;;;;5191991;28;20292;-35
2023/12/08 10:06:28;;;;;;;9.73;5.75;;;2.80;99.90;;;;;;5209432;28;20304;-35
2023/12/08 10:09:00;;;;;;;13.60;7.68;;;2.50;99.90;;;;;;5212200;28;20441;-35
2023/12/08 10:11:34;;;;;;;16.85;7.65;;;2.40;99.90;;;;;;5208122;28;20036;-35
2023/12/08 10:14:07;;;;;;;10.23;6.28;;;2.80;99.90;;;;;;5210819;28;20057;-37
2023/12/08 10:16:38;;;;;;;10.55;6.57;;;2.70;99.90;;;;;;5203082;28;20051;-35
2023/12/08 10:19:13;;;;;;;10.07;6.25;;;2.70;99.90;;;;;;5204961;28;20033;-35
2023/12/08 10:21:44;;;;;;;14.68;7.65;;;2.40;99.90;;;;;;5193188;28;20044;-35
2023/12/08 10:24:16;;;;;;;12.05;7.55;;;2.10;1.00;;;;;;5213166;28;20246;-35
2023/12/08 10:26:53;;;;;;;10.07;5.80;;;2.10;1.00;;;;;;5195495;28;20313;-35
2023/12/08 10:29:30;;;;;;;15.90;8.32;;;2.10;1.00;;;;;;5207806;28;20036;-35
2023/12/08 10:32:04;;;;;;;14.18;8.05;;;2.40;1.00;;;;;;5200677;28;20055;-35
2023/12/08 10:34:39;;;;;;;15.93;9.23;;;2.80;1.00;;;;;;5205969;28;20234;-34
2023/12/08 10:37:15;;;;;;;14.80;8.75;;;2.70;1.00;;;;;;5200576;28;20055;-35
2023/12/08 10:39:49;;;;;;;14.55;8.57;;;3.20;1.00;;;;;;5206748;28;20029;-35
2023/12/08 10:42:23;;;;;;;14.93;8.95;;;3.00;99.90;;;;;;5201144;28;20045;-34
2023/12/08 10:44:57;;;;;;;12.70;8.38;;;3.20;1.00;;;;;;5209576;28;20021;-35
2023/12/08 10:47:29;;;;;;;13.50;7.95;;;3.90;1.00;;;;;;5201521;28;20336;-35
2023/12/08 10:50:03;;;;;;;13.68;8.35;;;3.90;99.90;;;;;;5208216;28;20021;-35
2023/12/08 10:52:37;;;;;;;15.05;7.85;;;4.20;99.90;;;;;;5205786;28;20044;-34
2023/12/08 10:55:10;;;;;;;14.88;9.07;;;3.70;99.90;;;;;;5205255;28;20037;-34
2023/12/08 10:57:43;;;;;;;15.60;8.90;;;3.80;99.90;;;;;;5203413;28;20044;-35
2023/12/08 11:00:17;;;;;;;11.82;7.78;;;3.40;99.90;;;;;;5205476;28;20325;-35
2023/12/08 11:02:50;;;;;;;13.68;8.55;;;3.70;99.90;;;;;;5196134;28;20237;-35
2023/12/08 11:05:37;;;;;;;13.60;8.65;;;3.90;99.90;;;;;;5207474;28;20021;-35
2023/12/08 11:08:13;;;;;;;16.67;9.45;;;4.10;99.90;;;;;;5193734;28;20240;-35
2023/12/08 11:10:50;;;;;;;14.88;8.75;;;3.40;99.90;;;;;;5205749;28;20309;-35
2023/12/08 11:13:28;;;;;;;16.90;9.02;;;3.50;99.90;;;;;;5191127;28;20045;-35
2023/12/08 11:16:18;;;;;;;18.80;9.73;;;3.70;99.90;;;;;;5204658;28;20032;-35
2023/12/08 11:18:50;;;;;;;17.73;9.52;;;3.80;99.90;;;;;;5172194;28;20372;-35
2023/12/08 11:21:27;;;;;;;14.27;9.23;;;3.20;99.90;;;;;;5204716;28;20036;-34
2023/12/08 11:23:59;;;;;;;14.23;9.27;;;3.20;99.90;;;;;;5189609;28;20311;-35
2023/12/08 11:26:51;;;;;;;14.50;8.35;;;3.60;99.90;;;;;;5210799;28;20031;-35
2023/12/08 11:29:34;;;;;;;13.63;8.90;;;3.20;99.90;;;;;;5223665;28;20029;-35
2023/12/08 11:32:35;;;;;;;14.77;9.15;;;3.40;99.90;;;;;;5197065;28;20029;-34
2023/12/08 11:35:14;;;;;;;15.20;9.45;;;2.70;99.90;;;;;;5195993;28;20316;-35
2023/12/08 11:37:48;;;;;;;12.27;7.45;;;3.00;99.90;;;;;;5196475;28;20033;-35
2023/12/08 11:40:20;;;;;;;10.93;7.13;;;2.90;99.90;;;;;;5194609;28;20317;-35
2023/12/08 11:42:57;;;;;;;17.20;9.80;;;2.50;99.90;;;;;;5205576;28;20121;-35
2023/12/08 11:45:31;;;;;;;17.52;9.40;;;2.70;99.90;;;;;;5192750;28;20056;-35
2023/12/08 11:48:14;;;;;;;18.17;9.18;;;2.70;99.90;;;;;;5196673;28;20234;-35
2023/12/08 11:50:48;;;;;;;17.02;9.90;;;2.90;99.90;;;;;;5189749;28;20297;-35
2023/12/08 11:53:19;;;;;;;9.98;6.45;;;2.90;99.90;;;;;;5197122;28;20026;-35
2023/12/08 11:55:50;;;;;;;16.63;9.57;;;2.80;99.90;;;;;;5207244;28;20046;-35
2023/12/08 11:58:33;;;;;;;15.43;8.85;;;2.80;99.90;;;;;;5196470;28;20059;-35
2023/12/08 12:01:12;;;;;;;17.95;10.23;;;2.90;99.90;;;;;;5192077;28;20025;-35
2023/12/08 12:03:44;;;;;;;15.68;9.48;;;3.10;99.90;;;;;;5209237;28;20314;-35
2023/12/08 12:06:15;;;;;;;15.30;9.45;;;3.00;99.90;;;;;;5192402;28;20029;-35
2023/12/08 12:08:47;;;;;;;13.18;8.20;;;3.20;99.90;;;;;;5197934;28;20325;-34
2023/12/08 12:11:21;;;;;;;11.25;7.45;;;3.20;99.90;;;;;;5191862;28;20052;-35
2023/12/08 12:13:59;;;;;;;15.48;8.98;;;3.10;99.90;;;;;;5197728;28;20474;-35
2023/12/08 12:16:32;;;;;;;13.40;9.05;;;2.70;99.90;;;;;;5195707;28;20202;-34
2023/12/08 12:19:04;;;;;;;13.43;7.97;;;2.70;99.90;;;;;;5197827;28;20041;-35
2023/12/08 12:21:35;;;;;;;12.85;7.80;;;2.90;99.90;;;;;;5196101;28;20039;-34
2023/12/08 12:24:07;;;;;;;12.80;8.55;;;3.00;99.90;;;;;;5201343;28;20432;-34
2023/12/08 12:26:39;;;;;;;13.75;8.90;;;2.80;99.90;;;;;;5193349;28;20199;-34
2023/12/08 12:29:10;;;;;;;15.30;8.73;;;2.70;99.90;;;;;;5217336;28;20195;-34
2023/12/08 12:31:43;;;;;;;15.95;9.95;;;2.80;99.90;;;;;;5193854;28;20035;-34
2023/12/08 12:34:21;;;;;;;18.65;10.07;;;2.50;99.90;;;;;;5195387;28;20033;-35
2023/12/08 12:36:52;;;;;;;15.85;9.45;;;2.60;99.90;;;;;;5179168;28;20033;-34
2023/12/08 12:39:26;;;;;;;15.00;7.60;;;2.70;99.90;;;;;;5216174;28;20040;-34
2023/12/08 12:42:06;;;;;;;14.18;8.05;;;2.30;99.90;;;;;;5177691;28;20234;-34
2023/12/08 12:44:44;;;;;;;16.40;10.38;;;2.30;99.90;;;;;;5208595;28;20028;-34
2023/12/08 12:47:24;;;;;;;18.80;10.88;;;2.30;99.90;;;;;;5193172;28;20132;-34
2023/12/08 12:50:08;;;;;;;12.80;8.65;;;2.30;99.90;;;;;;5193643;28;20025;-34
2023/12/08 12:52:40;;;;;;;14.90;9.85;;;2.30;99.90;;;;;;5197139;28;20376;-34
2023/12/08 12:55:28;;;;;;;18.42;10.07;;;2.40;99.90;;;;;;5195312;28;20247;-34
2023/12/08 12:58:06;;;;;;;13.38;7.45;;;2.40;99.90;;;;;;5194290;28;20392;-34
2023/12/08 13:00:42;;;;;;;13.70;8.93;;;2.20;99.90;;;;;;5193874;28;20037;-34
2023/12/08 13:03:19;;;;;;;15.27;8.63;;;2.10;1.00;;;;;;5195876;28;20035;-35
2023/12/08 13:05:56;;;;;;;10.82;7.30;;;1.90;1.00;;;;;;5193208;28;20021;-34
2023/12/08 13:08:31;;;;;;;19.58;11.35;;;1.60;1.00;;;;;;5172946;28;20021;-34
2023/12/08 13:11:05;;;;;;;18.98;11.10;;;1.80;11.40;;;;;;5196872;28;20033;-35
2023/12/08 13:13:37;;;;;;;;;;;1.80;1.00;;;;;;5178348;28;20043;-34
2023/12/08 13:16:09;;;;;;;21.33;11.63;;;1.70;1.00;;;;;;5181623;28;19913;-35
2023/12/08 13:18:47;;;;;;;14.82;8.88;;;1.70;1.00;;;;;;5195672;28;20032;-34
2023/12/08 13:21:18;;;;;;;18.33;10.80;;;1.70;79.10;;;;;;5195168;28;20056;-35